createdAt,value
2022-07-26T00:01:18.145Z,3.85
2022-07-26T00:03:44.945Z,4.80
2022-07-26T00:06:11.496Z,2.88
2022-07-26T00:08:38.118Z,5.20
2022-07-26T00:11:07.113Z,4.43
2022-07-26T00:13:34.558Z,4.90
2022-07-26T00:16:01.260Z,6.65
2022-07-26T00:18:27.922Z,3.92
2022-07-26T00:20:54.510Z,4.78
2022-07-26T00:23:22.488Z,4.78
2022-07-26T00:25:49.007Z,5.65
2022-07-26T00:28:15.614Z,4.82
2022-07-26T00:30:42.298Z,6.13
2022-07-26T00:33:08.873Z,4.03
2022-07-26T00:35:35.453Z,5.18
2022-07-26T00:38:01.979Z,3.17
2022-07-26T00:40:28.514Z,3.45
2022-07-26T00:42:55.064Z,3.28
2022-07-26T00:45:21.855Z,3.83
2022-07-26T00:47:48.484Z,5.25
2022-07-26T00:50:17.260Z,4.20
2022-07-26T00:52:48.064Z,5.70
2022-07-26T00:55:16.234Z,4.20
2022-07-26T00:57:44.001Z,4.72
2022-07-26T01:00:17.428Z,4.53
2022-07-26T01:02:44.755Z,5.38
2022-07-26T01:05:11.521Z,3.35
2022-07-26T01:07:38.687Z,4.80
2022-07-26T01:10:08.807Z,3.70
2022-07-26T01:12:35.354Z,4.38
2022-07-26T01:15:01.880Z,5.45
2022-07-26T01:17:28.482Z,4.50
2022-07-26T01:19:55.044Z,4.63
2022-07-26T01:22:21.862Z,4.72
2022-07-26T01:24:48.476Z,4.78
2022-07-26T01:27:15.000Z,4.20
2022-07-26T01:29:41.673Z,3.70
2022-07-26T01:32:09.453Z,3.22
2022-07-26T01:34:36.030Z,3.95
2022-07-26T01:37:02.857Z,4.63
2022-07-26T01:39:29.380Z,2.92
2022-07-26T01:41:56.933Z,5.88
2022-07-26T01:44:23.886Z,4.50
2022-07-26T01:46:50.533Z,4.75
2022-07-26T01:49:17.409Z,4.22
2022-07-26T01:51:44.010Z,3.17
2022-07-26T01:54:11.689Z,5.43
2022-07-26T01:56:38.602Z,4.47
2022-07-26T01:59:05.342Z,5.63
2022-07-26T02:01:39.589Z,8.32
2022-07-26T02:04:29.522Z,4.57
2022-07-26T02:06:56.050Z,5.72
2022-07-26T02:09:22.593Z,4.45
2022-07-26T02:11:49.257Z,4.63
2022-07-26T02:14:25.634Z,3.38
2022-07-26T02:16:59.691Z,5.90
2022-07-26T02:19:28.808Z,5.35
2022-07-26T02:21:56.062Z,7.93
2022-07-26T02:24:23.275Z,4.60
2022-07-26T02:26:49.977Z,5.68
2022-07-26T02:29:16.588Z,4.13
2022-07-26T02:31:43.161Z,4.65
2022-07-26T02:34:15.652Z,3.20
2022-07-26T02:36:42.186Z,3.20
2022-07-26T02:39:09.027Z,4.63
2022-07-26T02:41:35.627Z,2.67
2022-07-26T02:44:02.151Z,5.82
2022-07-26T02:46:28.697Z,4.50
2022-07-26T02:48:55.515Z,4.40
2022-07-26T02:51:22.160Z,3.58
2022-07-26T02:53:48.708Z,3.72
2022-07-26T02:56:15.220Z,4.97
2022-07-26T02:58:41.775Z,5.63
2022-07-26T03:01:08.572Z,4.00
2022-07-26T03:03:36.465Z,2.90
2022-07-26T03:06:03.698Z,3.85
2022-07-26T03:08:30.289Z,5.15
2022-07-26T03:10:56.812Z,4.55
2022-07-26T03:13:23.375Z,3.42
2022-07-26T03:15:49.950Z,3.67
2022-07-26T03:18:16.585Z,3.75
2022-07-26T03:20:43.186Z,4.32
2022-07-26T03:23:09.751Z,4.70
2022-07-26T03:25:36.964Z,4.28
2022-07-26T03:28:04.449Z,4.43
2022-07-26T03:30:31.006Z,3.38
2022-07-26T03:32:57.525Z,4.40
2022-07-26T03:35:24.131Z,4.63
2022-07-26T03:37:50.707Z,5.35
2022-07-26T03:40:17.644Z,4.35
2022-07-26T03:42:46.157Z,5.38
2022-07-26T03:45:14.769Z,4.88
2022-07-26T03:47:42.086Z,4.78
2022-07-26T03:50:09.090Z,5.97
2022-07-26T03:52:35.624Z,4.40
2022-07-26T03:55:22.653Z,5.00
2022-07-26T03:57:49.323Z,6.13
2022-07-26T04:00:15.873Z,7.63
2022-07-26T04:02:42.570Z,3.60
2022-07-26T04:05:09.612Z,4.93
2022-07-26T04:07:42.578Z,3.08
2022-07-26T04:10:10.741Z,3.03
2022-07-26T04:12:37.380Z,4.93
2022-07-26T04:15:05.174Z,3.55
2022-07-26T04:17:41.635Z,4.90
2022-07-26T04:20:10.547Z,7.65
2022-07-26T04:22:38.344Z,4.75
2022-07-26T04:25:06.700Z,3.83
2022-07-26T04:27:33.830Z,3.60
2022-07-26T04:30:00.702Z,5.50
2022-07-26T04:32:27.448Z,5.95
2022-07-26T04:34:54.136Z,10.75
2022-07-26T04:37:20.668Z,5.50
2022-07-26T04:39:50.491Z,6.63
2022-07-26T04:42:21.070Z,8.00
2022-07-26T04:44:47.623Z,8.13
2022-07-26T04:47:14.166Z,12.30
2022-07-26T04:49:40.800Z,6.63
2022-07-26T04:52:07.571Z,5.80
2022-07-26T04:54:34.141Z,6.72
2022-07-26T04:57:00.938Z,8.20
2022-07-26T04:59:27.493Z,7.28
2022-07-26T05:01:59.204Z,7.68
2022-07-26T05:04:26.366Z,20.92
2022-07-26T05:06:53.158Z,10.98
2022-07-26T05:09:19.776Z,11.23
2022-07-26T05:11:46.304Z,13.70
2022-07-26T05:14:12.852Z,10.35
2022-07-26T05:16:39.440Z,7.82
2022-07-26T05:19:11.164Z,7.90
2022-07-26T05:21:37.699Z,9.85
2022-07-26T05:24:04.864Z,6.97
2022-07-26T05:26:34.397Z,6.60
2022-07-26T05:29:00.915Z,6.43
2022-07-26T05:31:27.496Z,4.15
2022-07-26T05:33:55.260Z,8.25
2022-07-26T05:36:21.956Z,6.63
2022-07-26T05:38:48.592Z,5.78
2022-07-26T05:41:15.160Z,5.07
2022-07-26T05:43:42.114Z,6.90
2022-07-26T05:46:10.118Z,6.20
2022-07-26T05:48:37.150Z,7.65
2022-07-26T05:51:04.094Z,4.65
2022-07-26T05:53:30.630Z,9.60
2022-07-26T05:55:57.185Z,8.60
2022-07-26T05:58:23.723Z,10.30
2022-07-26T06:00:50.255Z,8.93
2022-07-26T06:03:22.422Z,8.93
2022-07-26T06:05:50.994Z,6.55
2022-07-26T06:08:18.419Z,6.28
2022-07-26T06:10:45.448Z,8.32
2022-07-26T06:13:12.238Z,4.80
2022-07-26T06:15:38.867Z,3.80
2022-07-26T06:18:06.371Z,6.10
2022-07-26T06:20:33.699Z,8.45
2022-07-26T06:23:00.523Z,8.23
2022-07-26T06:25:27.270Z,6.80
2022-07-26T06:27:53.827Z,4.78
2022-07-26T06:30:20.360Z,6.22
2022-07-26T06:32:46.960Z,6.88
2022-07-26T06:35:14.265Z,4.82
2022-07-26T06:37:42.596Z,6.82
2022-07-26T06:40:10.573Z,5.50
2022-07-26T06:42:37.165Z,7.03
2022-07-26T06:45:05.057Z,3.95
2022-07-26T06:47:31.639Z,4.25
2022-07-26T06:49:58.188Z,7.85
2022-07-26T06:52:24.759Z,4.20
2022-07-26T06:54:51.318Z,7.53
2022-07-26T06:57:17.841Z,4.22
2022-07-26T06:59:44.354Z,3.90
2022-07-26T07:02:10.901Z,5.57
2022-07-26T07:04:37.512Z,4.93
2022-07-26T07:07:06.024Z,4.10
2022-07-26T07:09:33.128Z,5.35
2022-07-26T07:12:08.422Z,5.15
2022-07-26T07:14:37.708Z,3.47
2022-07-26T07:17:12.219Z,3.83
2022-07-26T07:19:41.584Z,4.05
2022-07-26T07:22:11.855Z,6.47
2022-07-26T07:24:39.024Z,4.97
2022-07-26T07:27:06.036Z,4.57
2022-07-26T07:29:33.708Z,3.70
2022-07-26T07:32:00.578Z,6.07
2022-07-26T07:34:30.225Z,3.83
2022-07-26T07:36:57.525Z,6.07
2022-07-26T07:39:24.292Z,3.88
2022-07-26T07:42:01.416Z,5.10
2022-07-26T07:44:27.934Z,3.28
2022-07-26T07:46:54.738Z,3.88
2022-07-26T07:49:22.362Z,3.75
2022-07-26T07:51:49.034Z,4.95
2022-07-26T07:54:16.140Z,4.60
2022-07-26T07:56:43.430Z,4.57
2022-07-26T07:59:10.610Z,3.85
2022-07-26T08:01:40.067Z,3.50
2022-07-26T08:04:08.415Z,3.55
2022-07-26T08:06:35.423Z,4.43
2022-07-26T08:09:05.638Z,5.03
2022-07-26T08:11:33.777Z,4.05
2022-07-26T08:14:01.225Z,4.13
2022-07-26T08:16:27.850Z,4.10
2022-07-26T08:19:08.680Z,3.75
2022-07-26T08:21:35.476Z,4.32
2022-07-26T08:24:02.577Z,3.53
2022-07-26T08:26:29.159Z,2.97
2022-07-26T08:28:59.673Z,2.88
2022-07-26T08:31:27.565Z,4.82
2022-07-26T08:33:54.195Z,3.20
2022-07-26T08:36:20.790Z,4.82
2022-07-26T08:38:47.790Z,5.00
2022-07-26T08:41:15.396Z,3.97
2022-07-26T08:43:43.768Z,4.35
2022-07-26T08:46:25.436Z,4.40
2022-07-26T08:48:53.331Z,3.63
2022-07-26T08:51:21.964Z,4.72
2022-07-26T08:53:49.210Z,3.67
2022-07-26T08:56:15.732Z,2.80
2022-07-26T08:58:43.491Z,5.05
2022-07-26T09:01:15.076Z,2.92
2022-07-26T09:03:43.788Z,4.55
2022-07-26T09:06:15.766Z,5.00
2022-07-26T09:08:43.009Z,3.78
2022-07-26T09:11:29.942Z,3.35
2022-07-26T09:14:04.351Z,3.53
2022-07-26T09:16:33.353Z,2.97
2022-07-26T09:19:22.628Z,5.05
2022-07-26T09:21:50.107Z,3.17
2022-07-26T09:24:38.112Z,3.95
2022-07-26T09:27:06.832Z,2.10
2022-07-26T09:29:46.574Z,3.92
2022-07-26T09:32:20.269Z,3.90
2022-07-26T09:34:54.305Z,2.80
2022-07-26T09:37:35.264Z,4.72
2022-07-26T09:40:04.075Z,2.72
2022-07-26T09:42:30.616Z,2.45
2022-07-26T09:44:58.537Z,3.10
2022-07-26T09:47:39.104Z,2.60
2022-07-26T09:50:32.937Z,3.50
2022-07-26T09:53:07.411Z,3.15
2022-07-26T09:55:55.403Z,3.08
2022-07-26T09:58:23.053Z,2.42
2022-07-26T10:00:49.585Z,2.35
2022-07-26T10:03:16.282Z,4.30
2022-07-26T10:05:42.912Z,2.92
2022-07-26T10:08:10.727Z,2.75
2022-07-26T10:10:45.386Z,3.53
2022-07-26T10:13:12.981Z,3.88
2022-07-26T10:15:41.117Z,1.85
2022-07-26T10:18:16.764Z,2.33
2022-07-26T10:20:50.894Z,3.80
2022-07-26T10:23:37.029Z,3.10
2022-07-26T10:26:06.043Z,2.60
2022-07-26T10:28:35.440Z,2.58
2022-07-26T10:31:20.278Z,1.60
2022-07-26T10:33:51.188Z,2.25
2022-07-26T10:36:25.762Z,2.55
2022-07-26T10:39:02.506Z,1.90
2022-07-26T10:41:37.548Z,1.92
2022-07-26T10:44:31.719Z,1.95
2022-07-26T10:47:09.193Z,1.98
2022-07-26T10:49:38.300Z,4.97
2022-07-26T10:52:07.870Z,2.35
2022-07-26T10:54:59.357Z,2.95
2022-07-26T10:57:29.933Z,2.85
2022-07-26T11:00:00.180Z,3.30
2022-07-26T11:02:29.016Z,2.42
2022-07-26T11:05:13.422Z,1.63
2022-07-26T11:08:06.237Z,2.33
2022-07-26T11:10:36.222Z,2.17
2022-07-26T11:13:15.852Z,1.38
2022-07-26T11:15:50.912Z,4.30
2022-07-26T11:18:22.185Z,2.22
2022-07-26T11:20:52.387Z,2.05
2022-07-26T11:23:34.665Z,3.30
2022-07-26T11:26:09.964Z,4.25
2022-07-26T11:28:48.425Z,5.63
2022-07-26T11:31:16.670Z,5.97
2022-07-26T11:33:49.121Z,6.68
2022-07-26T11:36:15.667Z,6.22
2022-07-26T11:38:55.529Z,6.97
2022-07-26T11:41:34.876Z,6.70
2022-07-26T11:44:02.804Z,4.97
2022-07-26T11:46:34.210Z,3.88
2022-07-26T11:49:01.718Z,4.93
2022-07-26T11:51:28.345Z,5.05
2022-07-26T11:53:59.765Z,4.63
2022-07-26T11:56:28.334Z,5.45
2022-07-26T11:58:56.959Z,4.55
2022-07-26T12:01:25.442Z,4.05
2022-07-26T12:03:53.912Z,5.80
2022-07-26T12:06:26.068Z,6.22
2022-07-26T12:08:58.436Z,4.78
2022-07-26T12:11:37.842Z,3.53
2022-07-26T12:14:04.722Z,4.07
2022-07-26T12:16:40.094Z,6.60
2022-07-26T12:19:27.930Z,5.35
2022-07-26T12:22:13.169Z,6.63
2022-07-26T12:24:52.329Z,5.68
2022-07-26T12:27:27.541Z,4.47
2022-07-26T12:29:56.700Z,5.45
2022-07-26T12:32:31.381Z,4.82
2022-07-26T12:35:09.042Z,3.47
2022-07-26T12:37:51.449Z,4.93
2022-07-26T12:40:19.897Z,3.65
2022-07-26T12:42:49.392Z,5.40
2022-07-26T12:45:20.586Z,4.80
2022-07-26T12:47:49.906Z,8.20
2022-07-26T12:50:23.598Z,7.07
2022-07-26T12:52:50.481Z,8.30
2022-07-26T12:55:19.526Z,8.07
2022-07-26T12:57:47.568Z,6.25
2022-07-26T13:00:16.561Z,6.47
2022-07-26T13:02:43.783Z,8.95
2022-07-26T13:05:11.354Z,8.02
2022-07-26T13:07:38.862Z,7.47
2022-07-26T13:10:32.398Z,6.75
2022-07-26T13:12:53.717Z,7.57
2022-07-26T13:15:20.286Z,7.85
2022-07-26T13:17:46.803Z,8.55
2022-07-26T13:20:13.827Z,6.47
2022-07-26T13:22:43.757Z,8.05
2022-07-26T13:25:10.414Z,7.57
2022-07-26T13:27:41.436Z,7.15
2022-07-26T13:30:11.551Z,7.88
2022-07-26T13:32:38.113Z,7.85
2022-07-26T13:35:04.881Z,7.90
2022-07-26T13:37:31.986Z,6.88
2022-07-26T13:39:58.638Z,7.40
2022-07-26T13:42:25.221Z,6.80
2022-07-26T13:44:52.312Z,7.25
2022-07-26T13:47:18.843Z,6.35
2022-07-26T13:49:45.448Z,8.48
2022-07-26T13:52:15.882Z,7.63
2022-07-26T13:54:43.431Z,10.23
2022-07-26T13:57:10.009Z,7.68
2022-07-26T13:59:36.549Z,9.82
2022-07-26T14:02:04.854Z,9.32
2022-07-26T14:04:31.622Z,8.57
2022-07-26T14:06:58.202Z,9.13
2022-07-26T14:09:24.869Z,7.45
2022-07-26T14:11:51.461Z,8.05
2022-07-26T14:14:18.049Z,12.05
2022-07-26T14:16:47.005Z,7.43
2022-07-26T14:19:15.992Z,6.68
2022-07-26T14:21:59.588Z,8.23
2022-07-26T14:24:27.085Z,7.45
2022-07-26T14:26:58.471Z,9.95
2022-07-26T14:29:26.761Z,9.30
2022-07-26T14:31:53.564Z,9.35
2022-07-26T14:34:20.235Z,9.50
2022-07-26T14:36:46.857Z,9.30
2022-07-26T14:39:13.410Z,8.07
2022-07-26T14:41:40.096Z,7.80
2022-07-26T14:44:06.921Z,6.78
2022-07-26T14:46:33.572Z,8.05
2022-07-26T14:49:00.195Z,7.25
2022-07-26T14:51:26.773Z,7.80
2022-07-26T14:53:53.307Z,6.13
2022-07-26T14:56:19.950Z,7.90
2022-07-26T14:58:46.522Z,9.02
2022-07-26T15:01:13.176Z,8.98
2022-07-26T15:03:39.755Z,4.13
2022-07-26T15:06:06.318Z,7.85
2022-07-26T15:08:32.841Z,7.88
2022-07-26T15:11:00.670Z,7.85
2022-07-26T15:13:27.264Z,7.85
2022-07-26T15:15:53.861Z,6.78
2022-07-26T15:18:20.474Z,5.45
2022-07-26T15:20:47.114Z,7.30
2022-07-26T15:23:15.149Z,6.38
2022-07-26T15:25:42.029Z,6.65
2022-07-26T15:28:08.654Z,6.63
2022-07-26T15:30:36.215Z,7.25
2022-07-26T15:33:02.863Z,5.53
2022-07-26T15:35:30.006Z,8.95
2022-07-26T15:37:57.605Z,5.38
2022-07-26T15:40:24.669Z,6.70
2022-07-26T15:42:52.252Z,9.98
2022-07-26T15:45:20.274Z,4.88
2022-07-26T15:48:03.166Z,7.38
2022-07-26T15:50:34.829Z,8.70
2022-07-26T15:53:01.422Z,6.30
2022-07-26T15:55:28.240Z,6.20
2022-07-26T15:57:54.830Z,6.30
2022-07-26T16:00:21.551Z,5.25
2022-07-26T16:02:48.216Z,4.50
2022-07-26T16:05:14.879Z,7.70
2022-07-26T16:07:42.549Z,5.80
2022-07-26T16:10:11.105Z,5.15
2022-07-26T16:12:38.363Z,7.85
2022-07-26T16:15:06.170Z,8.20
2022-07-26T16:17:32.701Z,7.05
2022-07-26T16:19:59.315Z,7.90
2022-07-26T16:22:25.857Z,7.05
2022-07-26T16:24:52.435Z,4.85
2022-07-26T16:27:18.979Z,7.00
2022-07-26T16:29:49.088Z,5.95
2022-07-26T16:32:18.612Z,6.75
2022-07-26T16:34:45.128Z,4.70
2022-07-26T16:37:11.758Z,6.20
2022-07-26T16:39:38.332Z,6.45
2022-07-26T16:42:07.242Z,5.50
2022-07-26T16:44:36.110Z,4.93
2022-07-26T16:47:03.131Z,8.75
2022-07-26T16:49:29.797Z,7.13
2022-07-26T16:51:57.693Z,7.30
2022-07-26T16:54:24.664Z,5.07
2022-07-26T16:56:51.195Z,5.57
2022-07-26T16:59:18.237Z,5.63
2022-07-26T17:01:45.082Z,4.30
2022-07-26T17:04:11.678Z,5.63
2022-07-26T17:06:38.293Z,7.22
2022-07-26T17:09:05.194Z,9.15
2022-07-26T17:11:31.704Z,7.13
2022-07-26T17:13:59.577Z,6.30
2022-07-26T17:16:26.499Z,6.30
2022-07-26T17:18:55.126Z,5.03
2022-07-26T17:21:22.712Z,11.65
2022-07-26T17:23:50.317Z,7.20
2022-07-26T17:26:18.186Z,6.40
2022-07-26T17:28:45.572Z,6.10
2022-07-26T17:31:12.649Z,6.20
2022-07-26T17:33:39.430Z,5.07
2022-07-26T17:36:29.365Z,5.18
2022-07-26T17:38:57.600Z,4.30
2022-07-26T17:41:28.880Z,6.55
2022-07-26T17:44:02.611Z,6.93
2022-07-26T17:46:32.686Z,5.88
2022-07-26T17:48:59.993Z,4.95
2022-07-26T17:51:26.629Z,4.95
2022-07-26T17:53:53.496Z,8.93
2022-07-26T17:56:20.174Z,11.73
2022-07-26T17:58:46.723Z,10.45
2022-07-26T18:01:13.396Z,10.10
2022-07-26T18:03:39.980Z,8.80
2022-07-26T18:06:06.713Z,7.38
2022-07-26T18:08:33.377Z,8.00
2022-07-26T18:11:02.822Z,10.90
2022-07-26T18:13:32.627Z,4.97
2022-07-26T18:16:02.871Z,12.30
2022-07-26T18:18:32.232Z,7.15
2022-07-26T18:20:58.857Z,4.93
2022-07-26T18:23:25.388Z,6.28
2022-07-26T18:25:53.532Z,5.82
2022-07-26T18:28:20.522Z,6.93
2022-07-26T18:30:47.056Z,11.73
2022-07-26T18:33:14.447Z,7.13
2022-07-26T18:35:41.411Z,5.93
2022-07-26T18:38:08.088Z,7.18
2022-07-26T18:40:34.803Z,7.18
2022-07-26T18:43:01.441Z,4.22
2022-07-26T18:45:28.073Z,5.85
2022-07-26T18:47:54.732Z,5.07
2022-07-26T18:50:21.575Z,6.22
2022-07-26T18:52:49.002Z,5.40
2022-07-26T18:55:15.672Z,7.38
2022-07-26T18:57:44.024Z,5.53
2022-07-26T19:00:19.439Z,6.93
2022-07-26T19:02:47.240Z,10.73
2022-07-26T19:05:16.292Z,7.07
2022-07-26T19:07:43.303Z,4.72
2022-07-26T19:10:10.844Z,5.03
2022-07-26T19:12:37.976Z,5.40
2022-07-26T19:15:06.726Z,8.30
2022-07-26T19:17:33.872Z,5.43
2022-07-26T19:20:00.515Z,3.35
2022-07-26T19:22:27.283Z,4.03
2022-07-26T19:24:53.818Z,4.50
2022-07-26T19:27:20.333Z,4.20
2022-07-26T19:29:47.899Z,5.30
2022-07-26T19:32:14.565Z,3.70
2022-07-26T19:34:41.122Z,4.22
2022-07-26T19:37:07.641Z,4.68
2022-07-26T19:39:34.257Z,5.13
2022-07-26T19:42:03.035Z,6.45
2022-07-26T19:44:29.585Z,4.88
2022-07-26T19:46:57.943Z,5.15
2022-07-26T19:49:24.893Z,5.53
2022-07-26T19:51:51.553Z,4.53
2022-07-26T19:54:18.141Z,4.97
2022-07-26T19:56:44.717Z,5.57
2022-07-26T19:59:11.571Z,3.35
2022-07-26T20:01:38.434Z,4.82
2022-07-26T20:04:05.326Z,7.47
2022-07-26T20:06:31.879Z,5.43
2022-07-26T20:08:58.390Z,4.13
2022-07-26T20:11:25.148Z,9.15
2022-07-26T20:13:51.743Z,3.38
2022-07-26T20:16:18.400Z,3.80
2022-07-26T20:18:45.011Z,9.82
2022-07-26T20:21:11.563Z,3.65
2022-07-26T20:23:38.139Z,4.05
2022-07-26T20:26:04.676Z,7.82
2022-07-26T20:28:31.280Z,3.30
2022-07-26T20:30:58.088Z,5.68
2022-07-26T20:33:25.468Z,2.88
2022-07-26T20:35:55.135Z,7.38
2022-07-26T20:38:22.246Z,4.03
2022-07-26T20:40:48.794Z,2.65
2022-07-26T20:43:15.379Z,2.83
2022-07-26T20:45:41.919Z,3.25
2022-07-26T20:48:08.810Z,3.72
2022-07-26T20:50:36.514Z,5.30
2022-07-26T20:53:03.531Z,3.47
2022-07-26T20:55:30.262Z,3.55
2022-07-26T20:57:56.841Z,3.55
2022-07-26T21:00:25.080Z,4.57
2022-07-26T21:02:53.665Z,2.47
2022-07-26T21:05:20.701Z,4.50
2022-07-26T21:07:57.128Z,3.33
2022-07-26T21:10:26.257Z,3.30
2022-07-26T21:12:53.120Z,3.42
2022-07-26T21:15:19.677Z,7.45
2022-07-26T21:17:46.242Z,2.78
2022-07-26T21:20:12.875Z,4.93
2022-07-26T21:22:39.429Z,2.08
2022-07-26T21:25:07.290Z,3.65
2022-07-26T21:27:33.907Z,3.70
2022-07-26T21:30:00.454Z,5.15
2022-07-26T21:32:31.164Z,4.13
2022-07-26T21:34:58.348Z,2.65
2022-07-26T21:37:25.138Z,3.33
2022-07-26T21:39:51.920Z,3.17
2022-07-26T21:42:18.779Z,2.80
2022-07-26T21:44:45.335Z,3.63
2022-07-26T21:47:12.309Z,2.80
2022-07-26T21:49:38.849Z,2.28
2022-07-26T21:52:05.641Z,3.35
2022-07-26T21:54:32.166Z,1.67
2022-07-26T21:56:58.696Z,1.58
2022-07-26T21:59:25.272Z,2.88
2022-07-26T22:01:51.863Z,2.47
2022-07-26T22:04:18.422Z,2.53
2022-07-26T22:06:45.083Z,2.17
2022-07-26T22:09:12.028Z,3.15
2022-07-26T22:11:38.808Z,3.97
2022-07-26T22:14:08.230Z,2.08
2022-07-26T22:16:35.022Z,2.53
2022-07-26T22:19:02.268Z,1.88
2022-07-26T22:21:29.208Z,3.15
2022-07-26T22:23:55.841Z,4.15
2022-07-26T22:26:26.193Z,3.15
2022-07-26T22:28:52.920Z,2.75
2022-07-26T22:31:19.609Z,3.45
2022-07-26T22:33:46.205Z,3.55
2022-07-26T22:36:12.788Z,3.05
2022-07-26T22:38:39.432Z,2.72
2022-07-26T22:41:05.962Z,3.55
2022-07-26T22:43:32.482Z,2.17
2022-07-26T22:45:59.101Z,2.25
2022-07-26T22:48:25.805Z,3.42
2022-07-26T22:50:52.422Z,1.83
2022-07-26T22:53:18.939Z,1.23
2022-07-26T22:55:45.454Z,2.78
2022-07-26T22:58:12.020Z,3.47
2022-07-26T23:00:38.598Z,2.03
2022-07-26T23:03:11.880Z,4.25
2022-07-26T23:05:47.777Z,2.20
2022-07-26T23:08:46.671Z,2.38
2022-07-26T23:11:02.295Z,3.30
2022-07-26T23:13:29.240Z,1.58
2022-07-26T23:16:00.549Z,3.30
2022-07-26T23:18:28.685Z,3.00
2022-07-26T23:20:56.162Z,2.17
2022-07-26T23:23:22.967Z,2.05
2022-07-26T23:25:56.116Z,1.63
2022-07-26T23:28:24.895Z,1.15
2022-07-26T23:31:05.451Z,3.80
2022-07-26T23:33:52.931Z,2.28
2022-07-26T23:36:19.516Z,2.80
2022-07-26T23:38:46.668Z,0.93
2022-07-26T23:41:13.595Z,3.33
2022-07-26T23:43:40.347Z,3.90
2022-07-26T23:46:07.807Z,1.80
2022-07-26T23:48:35.235Z,1.73
2022-07-26T23:51:02.439Z,2.78
2022-07-26T23:53:30.341Z,1.52
2022-07-26T23:55:57.141Z,2.55
2022-07-26T23:58:24.305Z,2.05
